METAR Formatted Surface Weather Observation
Issued by NWS

Home | Current Version | Previous Version | Text Only | Print | Product List | Glossary On
Versions: 1
578
SAUS46 KLOX 191930
MTRNZY
SPECI KNZY 191927Z 26010KT 10SM BKN019 BKN030 BKN040 14/09 A3001 RMK
AO2 T01440094 $



USA.gov is the U.S. government's official web portal to all federal, state and local government web resources and services.